Time;durP1;ratioP1;P1;durP2;ratioP2;P2;SDS_P1;SDS_P2;PMS_P1;PMS_P2;Temp;Humidity;BMP_temperature;BMP_pressure;BME280_temperature;BME280_humidity;BME280_pressure;Samples;Min_cycle;Max_cycle;Signal;HPM_P1;HPM_P2
2023/03/10 00:01:23;;;;;;;0.37;0.33;;;8.90;99.90;;;;;;5090784;28;20184;-96
2023/03/10 00:03:58;;;;;;;0.67;0.30;;;8.90;99.90;;;;;;5099084;28;20186;-96
2023/03/10 00:06:33;;;;;;;1.80;0.30;;;8.90;99.90;;;;;;5098401;28;20203;-96
2023/03/10 00:09:05;;;;;;;0.20;0.20;;;8.90;99.90;;;;;;5088752;28;20269;-95
2023/03/10 00:11:38;;;;;;;2.30;0.30;;;8.80;99.90;;;;;;5081566;28;20272;-94
2023/03/10 00:14:10;;;;;;;0.53;0.40;;;8.90;99.90;;;;;;5088458;28;20537;-90
2023/03/10 00:16:43;;;;;;;1.30;0.30;;;8.90;99.90;;;;;;5090839;28;20291;-96
2023/03/10 00:19:16;;;;;;;0.37;0.27;;;8.80;99.90;;;;;;5088064;28;20198;-95
2023/03/10 00:21:47;;;;;;;0.77;0.30;;;8.80;99.90;;;;;;5103603;28;20206;-95
2023/03/10 00:24:19;;;;;;;0.30;0.20;;;8.80;99.90;;;;;;5063382;28;20621;-94
2023/03/10 00:26:51;;;;;;;0.40;0.40;;;8.70;99.90;;;;;;5062360;28;20196;-96
2023/03/10 00:29:22;;;;;;;2.23;0.30;;;8.70;99.90;;;;;;5077174;28;20344;-83
2023/03/10 00:31:55;;;;;;;0.20;0.20;;;8.70;99.90;;;;;;5074473;28;20211;-89
2023/03/10 00:34:26;;;;;;;0.70;0.23;;;8.70;99.90;;;;;;5076387;28;20223;-89
2023/03/10 00:36:57;;;;;;;0.30;0.30;;;8.60;99.90;;;;;;5077400;28;20296;-88
2023/03/10 00:39:28;;;;;;;0.47;0.40;;;8.60;99.90;;;;;;5080156;28;20222;-88
2023/03/10 00:41:59;;;;;;;0.50;0.40;;;8.50;99.90;;;;;;5085211;28;20211;-90
2023/03/10 00:44:33;;;;;;;0.70;0.30;;;8.60;99.90;;;;;;5082441;28;20211;-91
2023/03/10 00:47:06;;;;;;;1.73;0.23;;;8.50;99.90;;;;;;5076685;28;20207;-91
2023/03/10 00:49:38;;;;;;;2.70;0.40;;;8.50;99.90;;;;;;5077746;28;20254;-90
2023/03/10 00:52:09;;;;;;;0.40;0.30;;;8.50;99.90;;;;;;5076364;28;20215;-91
2023/03/10 00:54:42;;;;;;;0.30;0.30;;;8.50;99.90;;;;;;5077302;28;20200;-89
2023/03/10 00:57:13;;;;;;;0.30;0.30;;;8.50;99.90;;;;;;5076621;28;20231;-92
2023/03/10 00:59:44;;;;;;;0.30;0.30;;;8.40;99.90;;;;;;5077083;28;20345;-90
2023/03/10 01:02:22;;;;;;;0.30;0.30;;;8.50;99.90;;;;;;5076964;28;20261;-91
2023/03/10 01:04:53;;;;;;;0.30;0.30;;;8.40;99.90;;;;;;5075239;28;20204;-91
2023/03/10 01:07:24;;;;;;;0.50;0.40;;;8.40;99.90;;;;;;5076214;28;20199;-90
2023/03/10 01:09:55;;;;;;;0.30;0.30;;;8.30;99.90;;;;;;5075871;28;20268;-91
2023/03/10 01:12:27;;;;;;;0.53;0.40;;;8.30;99.90;;;;;;5075853;28;20208;-88
2023/03/10 01:14:59;;;;;;;0.23;0.23;;;8.30;99.90;;;;;;5076092;28;20658;-89
2023/03/10 01:17:32;;;;;;;0.30;0.30;;;8.20;99.90;;;;;;5074164;28;20879;-89
2023/03/10 01:20:06;;;;;;;0.30;0.30;;;8.20;99.90;;;;;;5076121;28;20230;-90
2023/03/10 01:22:36;;;;;;;0.30;0.30;;;8.20;99.90;;;;;;5076871;28;20275;-89
2023/03/10 01:25:08;;;;;;;1.50;0.23;;;8.10;99.90;;;;;;5075691;28;20215;-90
2023/03/10 01:27:39;;;;;;;0.90;0.30;;;8.10;99.90;;;;;;5077202;28;20230;-90
2023/03/10 01:30:11;;;;;;;1.23;0.50;;;8.10;99.90;;;;;;5075519;28;20223;-89
2023/03/10 01:32:44;;;;;;;0.30;0.30;;;8.10;99.90;;;;;;5075778;28;20210;-90
2023/03/10 01:35:16;;;;;;;0.57;0.40;;;8.10;99.90;;;;;;5075571;28;20213;-90
2023/03/10 01:37:47;;;;;;;0.70;0.30;;;8.10;99.90;;;;;;5074947;28;20261;-90
2023/03/10 01:40:19;;;;;;;0.93;0.40;;;8.10;99.90;;;;;;5075864;28;20204;-90
2023/03/10 01:42:50;;;;;;;0.60;0.30;;;8.00;99.90;;;;;;5077264;28;20203;-90
2023/03/10 01:45:58;;;;;;;0.47;0.47;;;8.00;99.90;;;;;;5079747;28;20203;-89
2023/03/10 01:48:34;;;;;;;0.30;0.30;;;8.00;99.90;;;;;;5096817;28;20234;-91
2023/03/10 01:51:06;;;;;;;0.77;0.57;;;7.90;99.90;;;;;;5097577;28;20225;-92
2023/03/10 01:53:38;;;;;;;0.77;0.37;;;7.90;99.90;;;;;;5086702;28;20257;-91
2023/03/10 01:56:09;;;;;;;0.53;0.40;;;8.00;99.90;;;;;;5079635;28;20204;-91
2023/03/10 01:58:45;;;;;;;0.30;0.30;;;7.90;99.90;;;;;;5075311;28;20239;-91
2023/03/10 02:01:17;;;;;;;0.50;0.50;;;7.90;99.90;;;;;;5075446;28;20264;-90
2023/03/10 02:03:54;;;;;;;0.30;0.20;;;7.90;99.90;;;;;;5075564;28;20955;-91
2023/03/10 02:06:26;;;;;;;0.40;0.40;;;7.80;99.90;;;;;;5076557;28;20296;-91
2023/03/10 02:09:00;;;;;;;0.37;0.30;;;7.80;99.90;;;;;;5054392;28;20274;-90
2023/03/10 02:11:31;;;;;;;0.47;0.30;;;7.80;99.90;;;;;;5055959;28;20269;-91
2023/03/10 02:14:05;;;;;;;0.60;0.40;;;7.80;99.90;;;;;;5055223;28;20204;-91
2023/03/10 02:16:36;;;;;;;0.47;0.47;;;7.80;99.90;;;;;;5054835;28;20665;-91
2023/03/10 02:19:21;;;;;;;1.43;0.63;;;7.70;99.90;;;;;;5054195;28;20598;-91
2023/03/10 02:22:01;;;;;;;0.50;0.50;;;7.70;99.90;;;;;;5054938;28;20212;-90
2023/03/10 02:24:40;;;;;;;1.83;0.63;;;7.70;99.90;;;;;;5062125;28;20223;-89
2023/03/10 02:27:17;;;;;;;1.03;0.50;;;7.60;99.90;;;;;;5075133;28;20207;-89
2023/03/10 02:29:53;;;;;;;0.43;0.43;;;7.60;99.90;;;;;;5077037;28;20206;-90
2023/03/10 02:32:31;;;;;;;1.13;0.63;;;7.50;99.90;;;;;;5074574;28;20614;-90
2023/03/10 02:35:02;;;;;;;1.03;0.60;;;7.50;99.90;;;;;;5075954;28;20188;-90
2023/03/10 02:37:35;;;;;;;0.50;0.40;;;7.50;99.90;;;;;;5074168;28;20303;-90
2023/03/10 02:40:31;;;;;;;0.70;0.70;;;7.40;99.90;;;;;;5074800;28;20296;-90
2023/03/10 02:43:09;;;;;;;1.40;0.70;;;7.40;99.90;;;;;;5074580;28;20211;-89
2023/03/10 02:45:42;;;;;;;0.50;0.50;;;7.40;99.90;;;;;;5076118;28;20646;-89
2023/03/10 02:48:16;;;;;;;1.90;0.60;;;7.30;99.90;;;;;;5073524;28;20579;-89
2023/03/10 02:50:48;;;;;;;0.50;0.43;;;7.30;99.90;;;;;;5074349;28;20245;-91
2023/03/10 02:53:22;;;;;;;4.27;0.67;;;7.20;99.90;;;;;;5074708;28;20211;-91
2023/03/10 02:55:54;;;;;;;0.70;0.57;;;7.20;99.90;;;;;;5054588;28;20211;-91
2023/03/10 02:58:28;;;;;;;1.10;0.70;;;7.20;99.90;;;;;;5058947;28;20228;-91
2023/03/10 03:00:59;;;;;;;1.03;0.67;;;7.10;99.90;;;;;;5062111;28;20204;-90
2023/03/10 03:03:31;;;;;;;0.50;0.40;;;7.10;99.90;;;;;;5057523;28;20242;-91
2023/03/10 03:06:03;;;;;;;1.37;0.60;;;7.10;99.90;;;;;;5083810;28;20261;-90
2023/03/10 03:08:35;;;;;;;0.80;0.43;;;7.00;99.90;;;;;;5097917;28;20202;-91
2023/03/10 03:11:07;;;;;;;0.50;0.43;;;7.00;99.90;;;;;;5060999;28;20212;-90
2023/03/10 03:13:41;;;;;;;0.80;0.50;;;6.90;99.90;;;;;;5069545;28;20283;-91
2023/03/10 03:16:14;;;;;;;0.60;0.60;;;6.90;99.90;;;;;;5083538;28;20669;-89
2023/03/10 03:18:45;;;;;;;1.40;0.70;;;6.80;99.90;;;;;;5072801;28;20231;-90
2023/03/10 03:21:17;;;;;;;1.83;0.50;;;6.80;99.90;;;;;;5078889;28;20204;-92
2023/03/10 03:23:49;;;;;;;0.70;0.60;;;6.70;99.90;;;;;;5075825;28;20208;-89
2023/03/10 03:26:24;;;;;;;1.53;0.70;;;6.60;99.90;;;;;;5079267;28;20228;-91
2023/03/10 03:28:58;;;;;;;1.50;0.40;;;6.50;99.90;;;;;;5079724;28;20208;-90
2023/03/10 03:31:29;;;;;;;1.17;0.70;;;6.50;99.90;;;;;;5060564;28;20662;-91
2023/03/10 03:34:00;;;;;;;1.00;0.60;;;6.40;99.90;;;;;;5057555;28;20242;-90
2023/03/10 03:36:32;;;;;;;1.07;0.60;;;6.30;99.90;;;;;;5086836;28;20199;-92
2023/03/10 03:39:05;;;;;;;1.53;0.80;;;6.30;99.90;;;;;;5078985;28;20247;-91
2023/03/10 03:41:38;;;;;;;1.60;1.27;;;6.40;99.90;;;;;;5081316;28;20219;-91
2023/03/10 03:44:12;;;;;;;3.37;1.50;;;6.30;99.90;;;;;;5086327;28;20207;-91
2023/03/10 03:46:43;;;;;;;6.97;2.77;;;6.30;99.90;;;;;;5103107;28;20242;-91
2023/03/10 03:49:15;;;;;;;5.30;2.73;;;6.30;99.90;;;;;;5101823;28;20203;-89
2023/03/10 03:51:47;;;;;;;5.43;3.03;;;6.30;99.90;;;;;;5099818;28;20279;-90
2023/03/10 03:54:18;;;;;;;7.63;3.63;;;6.30;99.90;;;;;;5102490;28;20264;-91
2023/03/10 03:56:49;;;;;;;5.43;3.17;;;6.30;99.90;;;;;;5116137;28;20242;-91
2023/03/10 03:59:24;;;;;;;7.40;3.50;;;6.20;99.90;;;;;;5119590;28;20237;-92
2023/03/10 04:01:56;;;;;;;3.80;2.50;;;6.20;99.90;;;;;;5108087;28;20195;-92
2023/03/10 04:04:31;;;;;;;5.90;3.07;;;6.20;99.90;;;;;;5093489;28;20187;-91
2023/03/10 04:07:04;;;;;;;4.33;2.50;;;6.20;99.90;;;;;;5083644;28;20684;-92
2023/03/10 04:09:36;;;;;;;5.63;2.53;;;6.10;99.90;;;;;;5081068;28;22056;-93
2023/03/10 04:12:09;;;;;;;5.93;3.10;;;6.10;99.90;;;;;;5080314;28;20237;-92
2023/03/10 04:14:42;;;;;;;4.80;2.63;;;6.10;99.90;;;;;;5079080;28;20262;-91
2023/03/10 04:17:15;;;;;;;4.03;2.40;;;6.10;99.90;;;;;;5071900;28;20257;-92
2023/03/10 04:19:47;;;;;;;5.87;2.50;;;6.10;99.90;;;;;;5078019;28;20965;-91
2023/03/10 04:22:34;;;;;;;4.53;2.33;;;6.10;99.90;;;;;;5077730;28;20188;-90
2023/03/10 04:25:06;;;;;;;4.10;2.50;;;6.10;99.90;;;;;;5089723;28;20245;-91
2023/03/10 04:27:38;;;;;;;2.50;1.63;;;6.10;99.90;;;;;;5080461;28;20212;-92
2023/03/10 04:30:14;;;;;;;5.20;1.80;;;6.10;99.90;;;;;;5088462;28;20215;-90
2023/03/10 04:32:47;;;;;;;6.10;2.03;;;6.10;99.90;;;;;;5092224;28;20207;-91
2023/03/10 04:35:18;;;;;;;4.20;2.00;;;6.10;99.90;;;;;;5092682;28;20187;-92
2023/03/10 04:37:51;;;;;;;3.57;1.60;;;6.10;99.90;;;;;;5089579;28;20199;-92
2023/03/10 04:40:23;;;;;;;5.13;2.00;;;6.10;99.90;;;;;;5083981;28;20273;-92
2023/03/10 04:42:55;;;;;;;4.23;2.30;;;6.10;99.90;;;;;;5076477;28;20356;-91
2023/03/10 04:45:30;;;;;;;3.43;2.00;;;6.00;99.90;;;;;;5077254;28;20265;-91
2023/03/10 04:48:04;;;;;;;3.27;2.40;;;6.00;99.90;;;;;;5076243;28;20226;-91
2023/03/10 04:50:36;;;;;;;6.13;2.30;;;6.00;99.90;;;;;;5079698;28;20248;-91
2023/03/10 04:53:07;;;;;;;3.30;2.30;;;6.00;99.90;;;;;;5076645;28;20215;-90
2023/03/10 04:55:40;;;;;;;4.07;2.20;;;6.00;99.90;;;;;;5076517;28;20208;-92
2023/03/10 04:58:12;;;;;;;4.23;2.10;;;6.00;99.90;;;;;;5074078;28;20211;-90
2023/03/10 05:00:47;;;;;;;2.57;1.50;;;6.00;99.90;;;;;;5075554;28;20227;-92
2023/03/10 05:03:31;;;;;;;2.87;1.80;;;6.00;99.90;;;;;;5075214;28;20204;-90
2023/03/10 05:06:03;;;;;;;2.00;1.50;;;6.00;99.90;;;;;;5077897;28;20620;-92
2023/03/10 05:08:37;;;;;;;2.73;1.67;;;6.00;99.90;;;;;;5076218;28;20249;-89
2023/03/10 05:11:09;;;;;;;3.33;2.43;;;6.00;99.90;;;;;;5080350;28;20222;-91
2023/03/10 05:13:41;;;;;;;10.13;6.57;;;6.00;99.90;;;;;;5066792;28;20303;-91
2023/03/10 05:16:20;;;;;;;43.63;19.27;;;6.00;99.90;;;;;;5079232;28;20203;-91
2023/03/10 05:18:53;;;;;;;28.03;13.90;;;6.00;99.90;;;;;;5074224;28;20238;-91
2023/03/10 05:21:26;;;;;;;23.40;11.17;;;6.00;99.90;;;;;;5069182;28;20614;-91
2023/03/10 05:23:57;;;;;;;15.60;6.93;;;6.00;99.90;;;;;;5079162;28;20200;-91
2023/03/10 05:26:29;;;;;;;14.90;7.47;;;6.00;99.90;;;;;;5077775;28;20214;-91
2023/03/10 05:29:04;;;;;;;9.60;4.77;;;6.00;99.90;;;;;;5076850;28;20237;-91
2023/03/10 05:31:38;;;;;;;9.60;4.70;;;5.90;99.90;;;;;;5078468;28;20324;-91
2023/03/10 05:34:09;;;;;;;5.23;2.67;;;6.00;99.90;;;;;;5078091;28;20192;-90
2023/03/10 05:36:41;;;;;;;5.97;2.70;;;6.00;99.90;;;;;;5080281;28;20196;-89
2023/03/10 05:39:12;;;;;;;4.47;1.53;;;6.00;99.90;;;;;;5087443;28;20195;-90
2023/03/10 05:41:44;;;;;;;2.60;1.30;;;5.90;99.90;;;;;;5095388;28;20188;-91
2023/03/10 05:44:15;;;;;;;2.00;1.40;;;6.10;99.90;;;;;;5094571;28;20215;-89
2023/03/10 05:46:49;;;;;;;3.47;1.40;;;6.00;99.90;;;;;;5090870;28;20205;-90
2023/03/10 05:49:22;;;;;;;2.67;1.20;;;6.00;99.90;;;;;;5088080;28;20207;-90
2023/03/10 05:51:54;;;;;;;1.30;1.00;;;6.00;99.90;;;;;;5090072;28;20196;-89
2023/03/10 05:54:27;;;;;;;3.90;1.03;;;6.10;99.90;;;;;;5085843;28;20207;-90
2023/03/10 05:56:59;;;;;;;2.07;1.00;;;6.20;99.90;;;;;;5078118;28;20219;-90
2023/03/10 05:59:30;;;;;;;2.13;1.13;;;6.10;99.90;;;;;;5074901;28;20211;-90
2023/03/10 06:02:04;;;;;;;1.47;1.30;;;6.10;99.90;;;;;;5077214;28;20199;-90
2023/03/10 06:04:36;;;;;;;2.00;1.50;;;6.00;99.90;;;;;;5075605;28;20215;-89
2023/03/10 06:07:09;;;;;;;1.57;1.00;;;6.00;99.90;;;;;;5096345;28;20227;-91
2023/03/10 06:09:40;;;;;;;2.47;1.50;;;6.00;99.90;;;;;;5096506;28;20206;-92
2023/03/10 06:12:12;;;;;;;3.27;1.47;;;6.00;99.90;;;;;;5091615;28;20253;-90
2023/03/10 06:14:43;;;;;;;2.43;1.27;;;6.00;99.90;;;;;;5086333;28;20607;-90
2023/03/10 06:17:17;;;;;;;1.03;0.90;;;5.90;99.90;;;;;;5083498;28;20211;-91
2023/03/10 06:19:51;;;;;;;1.60;1.20;;;5.90;99.90;;;;;;5074508;28;20206;-93
2023/03/10 06:22:22;;;;;;;2.30;1.10;;;5.90;99.90;;;;;;5064333;28;20570;-91
2023/03/10 06:24:54;;;;;;;1.27;1.10;;;5.90;99.90;;;;;;5087589;28;20260;-91
2023/03/10 06:27:25;;;;;;;1.60;1.20;;;5.80;99.90;;;;;;5075248;28;20261;-91
2023/03/10 06:29:57;;;;;;;1.43;1.03;;;5.80;99.90;;;;;;5070156;28;20277;-92
2023/03/10 06:32:32;;;;;;;2.87;1.10;;;5.80;99.90;;;;;;5074940;28;20208;-91
2023/03/10 06:35:03;;;;;;;1.60;1.13;;;5.80;99.90;;;;;;5074341;28;20212;-91
2023/03/10 06:37:35;;;;;;;1.33;1.13;;;5.80;99.90;;;;;;5088192;28;20204;-91
2023/03/10 06:40:11;;;;;;;1.77;1.13;;;5.80;99.90;;;;;;5073259;28;20238;-91
2023/03/10 06:42:44;;;;;;;1.47;1.00;;;5.90;99.90;;;;;;5069407;28;20206;-89
2023/03/10 06:45:17;;;;;;;1.43;1.07;;;5.90;99.90;;;;;;5075360;28;20265;-90
2023/03/10 06:47:52;;;;;;;1.53;0.80;;;5.90;99.90;;;;;;5072122;28;20732;-89
2023/03/10 06:50:24;;;;;;;2.40;1.10;;;5.90;99.90;;;;;;5074874;28;20565;-90
2023/03/10 06:52:55;;;;;;;1.70;0.97;;;5.90;99.90;;;;;;5074379;28;20249;-88
2023/03/10 06:55:27;;;;;;;1.67;0.90;;;6.00;99.90;;;;;;5076294;28;20195;-90
2023/03/10 06:57:59;;;;;;;1.93;1.00;;;6.00;99.90;;;;;;5073374;28;20261;-90
2023/03/10 07:00:30;;;;;;;2.17;1.50;;;6.00;99.90;;;;;;5072256;28;20276;-90
2023/03/10 07:03:04;;;;;;;2.07;1.00;;;6.00;99.90;;;;;;5066759;28;20200;-90
2023/03/10 07:05:38;;;;;;;1.80;1.50;;;6.00;99.90;;;;;;5068615;28;20214;-90
2023/03/10 07:08:10;;;;;;;2.50;0.90;;;5.90;99.90;;;;;;5064422;28;20257;-90
2023/03/10 07:10:42;;;;;;;1.10;0.90;;;5.90;99.90;;;;;;5069157;28;20262;-89
2023/03/10 07:13:16;;;;;;;1.30;0.83;;;5.90;99.90;;;;;;5074284;28;20210;-92
2023/03/10 07:15:47;;;;;;;1.63;1.13;;;5.90;99.90;;;;;;5074529;28;20210;-91
2023/03/10 07:18:21;;;;;;;1.83;1.10;;;5.80;99.90;;;;;;5073749;28;20207;-91
2023/03/10 07:20:54;;;;;;;1.67;1.10;;;5.80;99.90;;;;;;5073779;28;20592;-91
2023/03/10 07:23:27;;;;;;;0.80;0.70;;;5.70;99.90;;;;;;5088796;28;20217;-92
2023/03/10 07:25:59;;;;;;;1.10;1.00;;;5.70;99.90;;;;;;5070378;28;20234;-91
2023/03/10 07:28:30;;;;;;;1.23;0.97;;;5.70;99.90;;;;;;5078456;28;20702;-92
2023/03/10 07:31:05;;;;;;;1.73;1.00;;;5.70;99.90;;;;;;5054229;28;20212;-91
2023/03/10 07:33:40;;;;;;;2.37;1.10;;;5.60;99.90;;;;;;5053866;28;20208;-91
2023/03/10 07:36:15;;;;;;;2.00;1.07;;;5.60;99.90;;;;;;5056588;28;20229;-90
2023/03/10 07:38:47;;;;;;;1.20;1.10;;;5.60;99.90;;;;;;5078126;28;20523;-91
2023/03/10 07:41:20;;;;;;;2.03;1.17;;;5.60;99.90;;;;;;5094057;28;20311;-90
2023/03/10 07:43:56;;;;;;;1.57;1.00;;;5.60;99.90;;;;;;5089918;28;20634;-90
2023/03/10 07:46:28;;;;;;;1.13;1.00;;;5.70;99.90;;;;;;5074154;28;20200;-89
2023/03/10 07:49:03;;;;;;;1.27;0.90;;;5.60;99.90;;;;;;5074739;28;20244;-90
2023/03/10 07:51:34;;;;;;;0.90;0.80;;;5.70;99.90;;;;;;5073751;28;20207;-90
2023/03/10 07:54:08;;;;;;;1.30;0.90;;;5.80;99.90;;;;;;5073306;28;20218;-90
2023/03/10 07:56:40;;;;;;;1.40;1.00;;;5.80;99.90;;;;;;5073233;28;20208;-90
2023/03/10 07:59:13;;;;;;;2.03;0.90;;;5.70;99.90;;;;;;5072768;28;20211;-89
2023/03/10 08:01:46;;;;;;;1.50;1.03;;;5.70;99.90;;;;;;5075457;28;20223;-90
2023/03/10 08:04:21;;;;;;;2.93;1.03;;;5.70;99.90;;;;;;5070764;28;20214;-90
2023/03/10 08:06:52;;;;;;;1.53;0.90;;;5.80;99.90;;;;;;5062287;28;20206;-89
2023/03/10 08:09:23;;;;;;;1.60;1.00;;;5.80;99.90;;;;;;5061648;28;20237;-90
2023/03/10 08:11:56;;;;;;;1.10;1.00;;;5.80;99.90;;;;;;5072451;28;20671;-90
2023/03/10 08:14:29;;;;;;;1.70;1.07;;;5.80;99.90;;;;;;5075114;28;20580;-89
2023/03/10 08:17:01;;;;;;;1.30;0.83;;;5.90;99.90;;;;;;5100917;28;20218;-91
2023/03/10 08:19:34;;;;;;;1.67;1.10;;;5.90;99.90;;;;;;5109928;28;20191;-91
2023/03/10 08:22:06;;;;;;;1.40;1.00;;;5.90;99.90;;;;;;5093363;28;20227;-92
2023/03/10 08:24:39;;;;;;;2.00;1.03;;;5.90;99.90;;;;;;5090995;28;20215;-92
2023/03/10 08:27:11;;;;;;;2.03;1.20;;;5.90;99.90;;;;;;5083003;28;20208;-92
2023/03/10 08:29:43;;;;;;;1.57;1.20;;;5.90;99.90;;;;;;5078179;28;20223;-90
2023/03/10 08:32:15;;;;;;;1.77;1.13;;;6.00;99.90;;;;;;5077497;28;20206;-92
2023/03/10 08:34:49;;;;;;;1.77;1.33;;;5.90;99.90;;;;;;5081636;28;20287;-90
2023/03/10 08:37:21;;;;;;;2.27;1.10;;;5.90;99.90;;;;;;5077504;28;20216;-92
2023/03/10 08:39:55;;;;;;;2.43;1.37;;;5.90;99.90;;;;;;5077291;28;20253;-91
2023/03/10 08:42:27;;;;;;;1.10;1.00;;;5.90;99.90;;;;;;5077225;28;20227;-90
2023/03/10 08:44:59;;;;;;;1.20;1.10;;;5.90;99.90;;;;;;5076808;28;20579;-91
2023/03/10 08:47:31;;;;;;;1.70;1.33;;;5.90;99.90;;;;;;5107829;28;20203;-90
2023/03/10 08:50:08;;;;;;;1.40;1.20;;;5.90;99.90;;;;;;5076355;28;20242;-91
2023/03/10 08:52:39;;;;;;;1.57;1.13;;;5.90;99.90;;;;;;5076445;28;20199;-91
2023/03/10 08:55:12;;;;;;;4.30;1.30;;;5.90;99.90;;;;;;5076494;28;20222;-90
2023/03/10 08:57:44;;;;;;;1.83;1.20;;;5.90;99.90;;;;;;5075264;28;20596;-90
2023/03/10 09:00:18;;;;;;;2.03;1.17;;;5.90;99.90;;;;;;5059684;28;20615;-89
2023/03/10 09:02:49;;;;;;;1.37;0.90;;;5.90;99.90;;;;;;5075598;28;20239;-90
2023/03/10 09:05:23;;;;;;;1.70;1.20;;;6.00;99.90;;;;;;5076000;28;20246;-90
2023/03/10 09:07:54;;;;;;;2.13;1.30;;;6.00;99.90;;;;;;5075059;28;20257;-90
2023/03/10 09:10:26;;;;;;;1.63;1.13;;;6.10;99.90;;;;;;5076004;28;20200;-89
2023/03/10 09:12:58;;;;;;;0.80;0.70;;;6.10;99.90;;;;;;5075888;28;20211;-90
2023/03/10 09:15:43;;;;;;;2.53;1.23;;;6.10;99.90;;;;;;5075649;28;20200;-89
2023/03/10 09:18:16;;;;;;;1.37;1.23;;;6.00;99.90;;;;;;5075282;28;20265;-90
2023/03/10 09:20:50;;;;;;;1.10;0.93;;;6.00;99.90;;;;;;5076038;28;20283;-90
2023/03/10 09:23:21;;;;;;;3.03;0.80;;;6.00;99.90;;;;;;5075588;28;20273;-91
2023/03/10 09:25:53;;;;;;;1.23;0.80;;;6.00;99.90;;;;;;5076052;28;20681;-91
2023/03/10 09:28:26;;;;;;;1.03;0.90;;;6.00;99.90;;;;;;5074862;28;20203;-90
2023/03/10 09:30:59;;;;;;;0.83;0.70;;;6.00;99.90;;;;;;5076624;28;20199;-91
2023/03/10 09:33:31;;;;;;;3.23;0.60;;;6.00;99.90;;;;;;5076230;28;20212;-90
2023/03/10 09:36:07;;;;;;;0.70;0.50;;;6.10;99.90;;;;;;5076121;28;20634;-90
2023/03/10 09:38:40;;;;;;;0.40;0.40;;;6.20;99.90;;;;;;5074948;28;20214;-89
2023/03/10 09:41:51;;;;;;;0.40;0.40;;;6.30;99.90;;;;;;5075061;28;20541;-90
2023/03/10 09:44:33;;;;;;;0.60;0.60;;;6.40;99.90;;;;;;5066826;28;20626;-91
2023/03/10 09:47:23;;;;;;;1.50;0.40;;;6.40;99.90;;;;;;5075155;28;20225;-91
2023/03/10 09:50:28;;;;;;;0.40;0.40;;;6.30;99.90;;;;;;5075437;28;20212;-90
2023/03/10 09:53:08;;;;;;;1.70;0.50;;;6.20;99.90;;;;;;5075039;28;20207;-91
2023/03/10 09:55:43;;;;;;;1.50;0.43;;;6.10;99.90;;;;;;5075361;28;20200;-90
2023/03/10 09:58:32;;;;;;;0.60;0.50;;;6.20;99.90;;;;;;5073862;28;20223;-90
2023/03/10 10:01:04;;;;;;;0.70;0.40;;;6.20;99.90;;;;;;5055057;28;20289;-89
2023/03/10 10:03:41;;;;;;;0.50;0.27;;;6.10;99.90;;;;;;5055119;28;20231;-89
2023/03/10 10:06:26;;;;;;;1.07;0.50;;;6.20;99.90;;;;;;5055083;28;20208;-87
2023/03/10 10:09:03;;;;;;;0.77;0.40;;;6.00;99.90;;;;;;5054293;28;20365;-89
2023/03/10 10:11:37;;;;;;;0.90;0.60;;;5.90;99.90;;;;;;5069000;28;20207;-90
2023/03/10 10:14:27;;;;;;;0.40;0.30;;;5.80;99.90;;;;;;5085002;28;20202;-89
2023/03/10 10:17:09;;;;;;;0.27;0.27;;;5.80;99.90;;;;;;5095548;28;20290;-89
2023/03/10 10:19:41;;;;;;;0.90;0.30;;;5.70;99.90;;;;;;5097300;28;20215;-87
2023/03/10 10:22:23;;;;;;;0.83;0.30;;;5.60;99.90;;;;;;5102674;28;20231;-90
2023/03/10 10:25:20;;;;;;;0.37;0.37;;;5.50;99.90;;;;;;5109173;28;20256;-90
2023/03/10 10:27:57;;;;;;;2.20;0.50;;;5.40;99.90;;;;;;5071463;28;20533;-90
2023/03/10 10:30:39;;;;;;;0.70;0.60;;;5.30;99.90;;;;;;5083583;28;20211;-90
2023/03/10 10:33:12;;;;;;;3.27;0.60;;;5.20;99.90;;;;;;5094723;28;20212;-89
2023/03/10 10:35:46;;;;;;;0.40;0.40;;;5.10;99.90;;;;;;5077264;28;20264;-90
2023/03/10 10:38:27;;;;;;;1.03;0.60;;;5.00;99.90;;;;;;5076332;28;20214;-91
2023/03/10 10:41:06;;;;;;;0.50;0.40;;;4.90;99.90;;;;;;5113445;28;20207;-89
2023/03/10 10:43:43;;;;;;;0.67;0.60;;;4.90;99.90;;;;;;5075375;28;20238;-91
2023/03/10 10:46:17;;;;;;;0.90;0.63;;;4.80;99.90;;;;;;5074479;28;20207;-91
2023/03/10 10:48:50;;;;;;;0.33;0.30;;;4.80;99.90;;;;;;5074843;28;20216;-91
2023/03/10 10:51:27;;;;;;;2.87;0.67;;;4.70;99.90;;;;;;5075120;28;20210;-90
2023/03/10 10:54:00;;;;;;;0.40;0.30;;;4.70;99.90;;;;;;5075005;28;20207;-92
2023/03/10 10:56:34;;;;;;;0.37;0.37;;;4.70;99.90;;;;;;5075232;28;20727;-91
2023/03/10 10:59:11;;;;;;;1.63;0.60;;;4.70;99.90;;;;;;5073892;28;20261;-91
2023/03/10 11:01:53;;;;;;;0.97;0.40;;;4.60;99.90;;;;;;5075718;28;20344;-90
2023/03/10 11:04:26;;;;;;;0.70;0.40;;;4.60;99.90;;;;;;5074843;28;20562;-90
2023/03/10 11:07:16;;;;;;;1.03;0.40;;;4.50;99.90;;;;;;5075962;28;20207;-90
2023/03/10 11:09:48;;;;;;;1.43;0.30;;;4.50;99.90;;;;;;5075007;28;20269;-90
2023/03/10 11:12:26;;;;;;;0.67;0.30;;;4.50;99.90;;;;;;5075996;28;20212;-89
2023/03/10 11:15:09;;;;;;;1.07;0.40;;;4.50;99.90;;;;;;5074913;28;20219;-90
2023/03/10 11:17:44;;;;;;;2.10;0.40;;;4.50;99.90;;;;;;5075807;28;20219;-90
2023/03/10 11:20:25;;;;;;;0.40;0.40;;;4.50;99.90;;;;;;5076001;28;20272;-90
2023/03/10 11:23:04;;;;;;;3.13;0.40;;;4.50;99.90;;;;;;5077070;28;20230;-90
2023/03/10 11:25:41;;;;;;;0.77;0.37;;;4.50;99.90;;;;;;5106731;28;20240;-90
2023/03/10 11:28:28;;;;;;;0.93;0.40;;;4.40;99.90;;;;;;5114456;28;20210;-90
2023/03/10 11:31:07;;;;;;;0.20;0.20;;;4.40;99.90;;;;;;5095891;28;20207;-91
2023/03/10 11:33:49;;;;;;;0.30;0.30;;;4.40;99.90;;;;;;5075582;28;20255;-91
2023/03/10 11:36:34;;;;;;;1.07;0.47;;;4.40;99.90;;;;;;5074267;28;20212;-92
2023/03/10 11:39:27;;;;;;;0.47;0.47;;;4.40;99.90;;;;;;5073745;28;20188;-91
2023/03/10 11:42:06;;;;;;;0.40;0.40;;;4.30;99.90;;;;;;5091698;28;20261;-91
2023/03/10 11:44:47;;;;;;;0.23;0.23;;;4.30;99.90;;;;;;5063282;28;20238;-89
2023/03/10 11:47:27;;;;;;;0.20;0.20;;;4.30;99.90;;;;;;5074670;28;20215;-91
2023/03/10 11:50:12;;;;;;;0.57;0.40;;;4.30;99.90;;;;;;5055335;28;20283;-92
2023/03/10 11:52:44;;;;;;;0.20;0.20;;;4.20;99.90;;;;;;5055147;28;20269;-91
2023/03/10 11:55:22;;;;;;;0.27;0.27;;;4.10;99.90;;;;;;5074594;28;20260;-90
2023/03/10 11:57:58;;;;;;;0.40;0.40;;;4.20;99.90;;;;;;5077451;28;20206;-93
2023/03/10 12:00:37;;;;;;;0.83;0.40;;;4.30;99.90;;;;;;5078828;28;20235;-91
2023/03/10 12:03:18;;;;;;;0.50;0.30;;;4.30;99.90;;;;;;5078425;28;20238;-92
2023/03/10 12:05:55;;;;;;;2.07;0.40;;;4.30;99.90;;;;;;5079265;28;20202;-90
2023/03/10 12:08:33;;;;;;;0.50;0.40;;;4.30;99.90;;;;;;5078323;28;20213;-90
2023/03/10 12:11:11;;;;;;;1.40;0.40;;;4.30;99.90;;;;;;5077806;28;20207;-91
2023/03/10 12:13:50;;;;;;;0.30;0.30;;;4.30;99.90;;;;;;5077109;28;20238;-90
2023/03/10 12:16:27;;;;;;;2.37;0.37;;;4.20;99.90;;;;;;5086229;28;20207;-88
2023/03/10 12:18:59;;;;;;;0.87;0.50;;;4.20;99.90;;;;;;5079129;28;20230;-90
2023/03/10 12:21:33;;;;;;;0.53;0.43;;;4.20;99.90;;;;;;5077841;28;20297;-91
2023/03/10 12:24:06;;;;;;;0.83;0.40;;;4.30;99.90;;;;;;5083295;28;20231;-91
2023/03/10 12:27:02;;;;;;;0.30;0.30;;;4.20;99.90;;;;;;5117538;28;20195;-90
2023/03/10 12:29:37;;;;;;;0.97;0.50;;;4.20;99.90;;;;;;5111147;28;20231;-90
2023/03/10 12:32:41;;;;;;;2.00;0.27;;;4.20;99.90;;;;;;5086081;28;20627;-91
2023/03/10 12:35:50;;;;;;;0.83;0.40;;;4.10;99.90;;;;;;5084506;28;20226;-91
2023/03/10 12:38:48;;;;;;;0.37;0.30;;;4.10;99.90;;;;;;5077330;28;20689;-92
2023/03/10 12:41:48;;;;;;;1.17;0.33;;;4.10;99.90;;;;;;5076325;28;20260;-91
2023/03/10 12:44:52;;;;;;;0.30;0.30;;;4.10;99.90;;;;;;5065088;28;20689;-90
2023/03/10 12:47:47;;;;;;;0.60;0.50;;;4.10;99.90;;;;;;5075092;28;20215;-90
2023/03/10 12:50:30;;;;;;;1.07;0.50;;;4.10;99.90;;;;;;5077140;28;20629;-90
2023/03/10 12:53:09;;;;;;;1.73;0.40;;;4.10;99.90;;;;;;5076349;28;20695;-91
2023/03/10 12:55:43;;;;;;;0.30;0.23;;;4.10;99.90;;;;;;5077869;28;20215;-90
2023/03/10 12:58:23;;;;;;;1.47;0.50;;;4.00;99.90;;;;;;5058976;28;20634;-91
2023/03/10 13:00:58;;;;;;;0.80;0.30;;;4.10;99.90;;;;;;5078310;28;20678;-91
2023/03/10 13:03:40;;;;;;;0.53;0.40;;;4.10;99.90;;;;;;5079088;28;20231;-92
2023/03/10 13:06:23;;;;;;;0.40;0.30;;;4.00;99.90;;;;;;5062494;28;20290;-90
2023/03/10 13:08:58;;;;;;;0.70;0.30;;;4.10;99.90;;;;;;5092258;28;20206;-91
2023/03/10 13:11:35;;;;;;;1.57;0.40;;;4.10;99.90;;;;;;5099193;28;20202;-91
2023/03/10 13:14:14;;;;;;;0.30;0.30;;;4.10;99.90;;;;;;5093869;28;20275;-90
2023/03/10 13:16:55;;;;;;;0.90;0.43;;;4.10;99.90;;;;;;5077043;28;20207;-90
2023/03/10 13:19:32;;;;;;;0.30;0.30;;;4.10;99.90;;;;;;5075477;28;20214;-90
2023/03/10 13:22:05;;;;;;;1.47;0.50;;;4.10;99.90;;;;;;5076206;28;20207;-91
2023/03/10 13:24:39;;;;;;;0.30;0.30;;;4.10;99.90;;;;;;5084970;28;20669;-91
2023/03/10 13:27:15;;;;;;;1.27;0.43;;;4.10;99.90;;;;;;5076522;28;20264;-91
2023/03/10 13:29:57;;;;;;;0.33;0.33;;;4.10;99.90;;;;;;5076177;28;20547;-91
2023/03/10 13:32:29;;;;;;;0.37;0.37;;;4.10;99.90;;;;;;5075968;28;20203;-91
2023/03/10 13:35:15;;;;;;;0.50;0.40;;;4.00;99.90;;;;;;5076011;28;20226;-91
2023/03/10 13:38:04;;;;;;;0.53;0.30;;;4.00;99.90;;;;;;5074834;28;20223;-90
2023/03/10 13:40:36;;;;;;;0.30;0.30;;;4.00;99.90;;;;;;5076104;28;20243;-91